sensor_id;sensor_type;location;lat;lon;timestamp;P1;durP1;ratioP1;P2;durP2;ratioP2
19739;SDS011;10027;51.066;13.768;2023-03-14T00:00:24;0.70;;;0.60;;
19739;SDS011;10027;51.066;13.768;2023-03-14T00:02:52;1.63;;;0.70;;
19739;SDS011;10027;51.066;13.768;2023-03-14T00:05:20;1.20;;;0.90;;
19739;SDS011;10027;51.066;13.768;2023-03-14T00:07:47;1.43;;;0.87;;
19739;SDS011;10027;51.066;13.768;2023-03-14T00:10:14;1.57;;;0.83;;
19739;SDS011;10027;51.066;13.768;2023-03-14T00:12:41;1.17;;;0.87;;
19739;SDS011;10027;51.066;13.768;2023-03-14T00:15:09;0.80;;;0.80;;
19739;SDS011;10027;51.066;13.768;2023-03-14T00:17:36;0.80;;;0.63;;
19739;SDS011;10027;51.066;13.768;2023-03-14T00:20:04;0.80;;;0.70;;
19739;SDS011;10027;51.066;13.768;2023-03-14T00:22:35;0.80;;;0.80;;
19739;SDS011;10027;51.066;13.768;2023-03-14T00:25:02;1.37;;;0.97;;
19739;SDS011;10027;51.066;13.768;2023-03-14T00:27:29;1.47;;;0.70;;
19739;SDS011;10027;51.066;13.768;2023-03-14T00:29:57;0.83;;;0.80;;
19739;SDS011;10027;51.066;13.768;2023-03-14T00:32:24;2.00;;;1.00;;
19739;SDS011;10027;51.066;13.768;2023-03-14T00:34:51;1.13;;;0.90;;
19739;SDS011;10027;51.066;13.768;2023-03-14T00:37:18;1.23;;;1.00;;
19739;SDS011;10027;51.066;13.768;2023-03-14T00:39:45;2.17;;;1.17;;
19739;SDS011;10027;51.066;13.768;2023-03-14T00:42:13;1.73;;;1.30;;
19739;SDS011;10027;51.066;13.768;2023-03-14T00:44:40;1.50;;;1.03;;
19739;SDS011;10027;51.066;13.768;2023-03-14T00:47:07;1.73;;;1.40;;
19739;SDS011;10027;51.066;13.768;2023-03-14T00:49:35;2.30;;;1.30;;
19739;SDS011;10027;51.066;13.768;2023-03-14T00:52:02;1.73;;;1.50;;
19739;SDS011;10027;51.066;13.768;2023-03-14T00:54:29;2.20;;;1.60;;
19739;SDS011;10027;51.066;13.768;2023-03-14T00:56:56;2.00;;;1.40;;
19739;SDS011;10027;51.066;13.768;2023-03-14T00:59:23;2.83;;;1.50;;
19739;SDS011;10027;51.066;13.768;2023-03-14T01:01:50;1.53;;;1.43;;
19739;SDS011;10027;51.066;13.768;2023-03-14T01:04:17;2.33;;;1.70;;
19739;SDS011;10027;51.066;13.768;2023-03-14T01:06:45;1.77;;;1.50;;
19739;SDS011;10027;51.066;13.768;2023-03-14T01:09:12;3.07;;;1.60;;
19739;SDS011;10027;51.066;13.768;2023-03-14T01:11:39;2.93;;;1.80;;
19739;SDS011;10027;51.066;13.768;2023-03-14T01:14:06;1.87;;;1.67;;
19739;SDS011;10027;51.066;13.768;2023-03-14T01:16:34;2.10;;;1.90;;
19739;SDS011;10027;51.066;13.768;2023-03-14T01:19:02;2.37;;;1.60;;
19739;SDS011;10027;51.066;13.768;2023-03-14T01:21:30;2.07;;;1.87;;
19739;SDS011;10027;51.066;13.768;2023-03-14T01:23:58;2.17;;;1.80;;
19739;SDS011;10027;51.066;13.768;2023-03-14T01:26:26;2.00;;;1.90;;
19739;SDS011;10027;51.066;13.768;2023-03-14T01:28:54;2.23;;;2.03;;
19739;SDS011;10027;51.066;13.768;2023-03-14T01:31:21;2.50;;;1.93;;
19739;SDS011;10027;51.066;13.768;2023-03-14T01:33:49;2.57;;;1.93;;
19739;SDS011;10027;51.066;13.768;2023-03-14T01:36:16;2.20;;;1.97;;
19739;SDS011;10027;51.066;13.768;2023-03-14T01:38:44;3.53;;;1.70;;
19739;SDS011;10027;51.066;13.768;2023-03-14T01:41:19;2.20;;;1.90;;
19739;SDS011;10027;51.066;13.768;2023-03-14T01:43:46;2.97;;;1.97;;
19739;SDS011;10027;51.066;13.768;2023-03-14T01:48:48;2.30;;;2.10;;
19739;SDS011;10027;51.066;13.768;2023-03-14T01:51:19;2.67;;;2.10;;
19739;SDS011;10027;51.066;13.768;2023-03-14T01:53:47;2.40;;;2.20;;
19739;SDS011;10027;51.066;13.768;2023-03-14T01:56:16;2.83;;;2.53;;
19739;SDS011;10027;51.066;13.768;2023-03-14T01:58:45;2.60;;;2.10;;
19739;SDS011;10027;51.066;13.768;2023-03-14T02:01:14;2.30;;;2.10;;
19739;SDS011;10027;51.066;13.768;2023-03-14T02:03:53;2.37;;;2.17;;
19739;SDS011;10027;51.066;13.768;2023-03-14T02:06:22;2.30;;;2.10;;
19739;SDS011;10027;51.066;13.768;2023-03-14T02:08:51;2.80;;;2.20;;
19739;SDS011;10027;51.066;13.768;2023-03-14T02:11:18;2.50;;;2.13;;
19739;SDS011;10027;51.066;13.768;2023-03-14T02:13:45;2.83;;;2.40;;
19739;SDS011;10027;51.066;13.768;2023-03-14T02:16:12;3.57;;;2.60;;
19739;SDS011;10027;51.066;13.768;2023-03-14T02:18:40;3.03;;;2.30;;
19739;SDS011;10027;51.066;13.768;2023-03-14T02:26:24;3.20;;;2.50;;
19739;SDS011;10027;51.066;13.768;2023-03-14T02:28:54;3.37;;;2.60;;
19739;SDS011;10027;51.066;13.768;2023-03-14T02:31:21;2.87;;;2.33;;
19739;SDS011;10027;51.066;13.768;2023-03-14T02:33:49;3.10;;;2.20;;
19739;SDS011;10027;51.066;13.768;2023-03-14T02:36:16;2.50;;;2.30;;
19739;SDS011;10027;51.066;13.768;2023-03-14T02:41:12;2.80;;;2.17;;
19739;SDS011;10027;51.066;13.768;2023-03-14T02:43:40;2.43;;;1.97;;
19739;SDS011;10027;51.066;13.768;2023-03-14T02:46:07;2.67;;;2.00;;
19739;SDS011;10027;51.066;13.768;2023-03-14T02:48:37;2.77;;;2.20;;
19739;SDS011;10027;51.066;13.768;2023-03-14T02:51:06;3.10;;;2.23;;
19739;SDS011;10027;51.066;13.768;2023-03-14T02:53:34;2.40;;;2.03;;
19739;SDS011;10027;51.066;13.768;2023-03-14T02:56:02;2.50;;;2.30;;
19739;SDS011;10027;51.066;13.768;2023-03-14T02:58:29;2.37;;;1.97;;
19739;SDS011;10027;51.066;13.768;2023-03-14T03:00:56;2.00;;;1.80;;
19739;SDS011;10027;51.066;13.768;2023-03-14T03:03:23;2.00;;;1.80;;
19739;SDS011;10027;51.066;13.768;2023-03-14T03:05:51;1.77;;;1.67;;
19739;SDS011;10027;51.066;13.768;2023-03-14T03:08:19;1.70;;;1.60;;
19739;SDS011;10027;51.066;13.768;2023-03-14T03:10:47;1.33;;;1.20;;
19739;SDS011;10027;51.066;13.768;2023-03-14T03:13:14;1.40;;;1.27;;
19739;SDS011;10027;51.066;13.768;2023-03-14T03:15:41;1.50;;;1.10;;
19739;SDS011;10027;51.066;13.768;2023-03-14T03:18:08;3.00;;;1.40;;
19739;SDS011;10027;51.066;13.768;2023-03-14T03:20:36;1.20;;;1.10;;
19739;SDS011;10027;51.066;13.768;2023-03-14T03:23:03;0.80;;;0.80;;
19739;SDS011;10027;51.066;13.768;2023-03-14T03:25:30;1.03;;;0.70;;
19739;SDS011;10027;51.066;13.768;2023-03-14T03:27:57;0.50;;;0.50;;
19739;SDS011;10027;51.066;13.768;2023-03-14T03:30:24;0.87;;;0.60;;
19739;SDS011;10027;51.066;13.768;2023-03-14T03:32:51;0.50;;;0.50;;
19739;SDS011;10027;51.066;13.768;2023-03-14T03:35:18;0.70;;;0.50;;
19739;SDS011;10027;51.066;13.768;2023-03-14T03:37:46;0.40;;;0.40;;
19739;SDS011;10027;51.066;13.768;2023-03-14T03:40:13;0.40;;;0.37;;
19739;SDS011;10027;51.066;13.768;2023-03-14T03:42:40;1.17;;;0.30;;
19739;SDS011;10027;51.066;13.768;2023-03-14T03:45:07;0.27;;;0.20;;
19739;SDS011;10027;51.066;13.768;2023-03-14T03:47:34;0.63;;;0.40;;
19739;SDS011;10027;51.066;13.768;2023-03-14T03:50:01;0.50;;;0.30;;
19739;SDS011;10027;51.066;13.768;2023-03-14T03:52:29;0.13;;;0.13;;
19739;SDS011;10027;51.066;13.768;2023-03-14T03:54:56;0.30;;;0.30;;
19739;SDS011;10027;51.066;13.768;2023-03-14T03:57:23;0.67;;;0.30;;
19739;SDS011;10027;51.066;13.768;2023-03-14T03:59:50;0.87;;;0.53;;
19739;SDS011;10027;51.066;13.768;2023-03-14T04:02:17;0.87;;;0.30;;
19739;SDS011;10027;51.066;13.768;2023-03-14T04:04:44;0.80;;;0.20;;
19739;SDS011;10027;51.066;13.768;2023-03-14T04:07:11;0.30;;;0.20;;
19739;SDS011;10027;51.066;13.768;2023-03-14T04:09:40;0.20;;;0.10;;
19739;SDS011;10027;51.066;13.768;2023-03-14T04:12:07;0.23;;;0.20;;
19739;SDS011;10027;51.066;13.768;2023-03-14T04:14:34;0.30;;;0.20;;
19739;SDS011;10027;51.066;13.768;2023-03-14T04:17:01;0.37;;;0.30;;
19739;SDS011;10027;51.066;13.768;2023-03-14T04:19:28;0.23;;;0.23;;
19739;SDS011;10027;51.066;13.768;2023-03-14T04:21:55;0.20;;;0.20;;
19739;SDS011;10027;51.066;13.768;2023-03-14T04:24:22;0.30;;;0.20;;
19739;SDS011;10027;51.066;13.768;2023-03-14T04:26:49;0.20;;;0.20;;
19739;SDS011;10027;51.066;13.768;2023-03-14T04:29:16;0.20;;;0.20;;
19739;SDS011;10027;51.066;13.768;2023-03-14T04:31:44;0.33;;;0.27;;
19739;SDS011;10027;51.066;13.768;2023-03-14T04:34:11;0.30;;;0.10;;
19739;SDS011;10027;51.066;13.768;2023-03-14T04:36:38;0.20;;;0.20;;
19739;SDS011;10027;51.066;13.768;2023-03-14T04:39:05;0.40;;;0.20;;
19739;SDS011;10027;51.066;13.768;2023-03-14T04:41:32;0.50;;;0.40;;
19739;SDS011;10027;51.066;13.768;2023-03-14T04:43:59;0.50;;;0.33;;
19739;SDS011;10027;51.066;13.768;2023-03-14T04:46:26;0.50;;;0.40;;
19739;SDS011;10027;51.066;13.768;2023-03-14T04:48:54;0.43;;;0.23;;
19739;SDS011;10027;51.066;13.768;2023-03-14T04:51:22;0.63;;;0.57;;
19739;SDS011;10027;51.066;13.768;2023-03-14T04:53:53;1.20;;;0.30;;
19739;SDS011;10027;51.066;13.768;2023-03-14T04:56:21;1.03;;;0.20;;
19739;SDS011;10027;51.066;13.768;2023-03-14T04:58:48;0.20;;;0.20;;
19739;SDS011;10027;51.066;13.768;2023-03-14T05:01:15;1.23;;;0.33;;
19739;SDS011;10027;51.066;13.768;2023-03-14T05:03:43;1.27;;;0.27;;
19739;SDS011;10027;51.066;13.768;2023-03-14T05:06:11;0.80;;;0.70;;
19739;SDS011;10027;51.066;13.768;2023-03-14T05:08:38;2.97;;;1.10;;
19739;SDS011;10027;51.066;13.768;2023-03-14T05:11:05;1.60;;;1.50;;
19739;SDS011;10027;51.066;13.768;2023-03-14T05:13:32;0.50;;;0.43;;
19739;SDS011;10027;51.066;13.768;2023-03-14T05:16:03;0.80;;;0.50;;
19739;SDS011;10027;51.066;13.768;2023-03-14T05:18:30;1.17;;;0.20;;
19739;SDS011;10027;51.066;13.768;2023-03-14T05:20:57;1.80;;;0.57;;
19739;SDS011;10027;51.066;13.768;2023-03-14T05:23:24;3.67;;;2.17;;
19739;SDS011;10027;51.066;13.768;2023-03-14T05:25:51;2.63;;;1.80;;
19739;SDS011;10027;51.066;13.768;2023-03-14T05:28:19;3.93;;;2.00;;
19739;SDS011;10027;51.066;13.768;2023-03-14T05:30:46;5.00;;;2.90;;
19739;SDS011;10027;51.066;13.768;2023-03-14T05:33:13;3.93;;;2.10;;
19739;SDS011;10027;51.066;13.768;2023-03-14T05:35:41;1.90;;;1.37;;
19739;SDS011;10027;51.066;13.768;2023-03-14T05:38:09;2.27;;;0.80;;
19739;SDS011;10027;51.066;13.768;2023-03-14T05:40:37;0.90;;;0.67;;
19739;SDS011;10027;51.066;13.768;2023-03-14T05:43:04;3.10;;;1.10;;
19739;SDS011;10027;51.066;13.768;2023-03-14T05:45:34;1.90;;;0.70;;
19739;SDS011;10027;51.066;13.768;2023-03-14T05:48:01;1.07;;;0.50;;
19739;SDS011;10027;51.066;13.768;2023-03-14T05:50:28;2.60;;;0.57;;
19739;SDS011;10027;51.066;13.768;2023-03-14T05:52:56;1.17;;;0.40;;
19739;SDS011;10027;51.066;13.768;2023-03-14T05:55:23;2.07;;;0.70;;
19739;SDS011;10027;51.066;13.768;2023-03-14T05:57:50;2.33;;;0.70;;
19739;SDS011;10027;51.066;13.768;2023-03-14T06:00:17;1.27;;;0.60;;
19739;SDS011;10027;51.066;13.768;2023-03-14T06:02:45;3.17;;;0.90;;
19739;SDS011;10027;51.066;13.768;2023-03-14T06:05:12;3.57;;;1.20;;
19739;SDS011;10027;51.066;13.768;2023-03-14T06:07:39;2.33;;;0.80;;
19739;SDS011;10027;51.066;13.768;2023-03-14T06:10:07;2.00;;;0.70;;
19739;SDS011;10027;51.066;13.768;2023-03-14T06:12:34;1.77;;;0.60;;
19739;SDS011;10027;51.066;13.768;2023-03-14T06:15:01;1.63;;;0.53;;
19739;SDS011;10027;51.066;13.768;2023-03-14T06:17:28;1.37;;;0.60;;
19739;SDS011;10027;51.066;13.768;2023-03-14T06:19:55;1.93;;;0.43;;
19739;SDS011;10027;51.066;13.768;2023-03-14T06:22:22;2.43;;;0.60;;
19739;SDS011;10027;51.066;13.768;2023-03-14T06:24:49;0.63;;;0.43;;
19739;SDS011;10027;51.066;13.768;2023-03-14T06:27:16;2.73;;;0.47;;
19739;SDS011;10027;51.066;13.768;2023-03-14T06:29:43;2.27;;;0.60;;
19739;SDS011;10027;51.066;13.768;2023-03-14T06:32:11;2.97;;;0.57;;
19739;SDS011;10027;51.066;13.768;2023-03-14T06:34:38;3.10;;;0.60;;
19739;SDS011;10027;51.066;13.768;2023-03-14T06:37:05;2.20;;;0.70;;
19739;SDS011;10027;51.066;13.768;2023-03-14T06:39:32;4.03;;;0.90;;
19739;SDS011;10027;51.066;13.768;2023-03-14T06:41:59;1.10;;;0.50;;
19739;SDS011;10027;51.066;13.768;2023-03-14T06:44:26;3.07;;;1.07;;
19739;SDS011;10027;51.066;13.768;2023-03-14T06:46:53;1.63;;;0.50;;
19739;SDS011;10027;51.066;13.768;2023-03-14T06:49:20;3.73;;;0.70;;
19739;SDS011;10027;51.066;13.768;2023-03-14T06:51:47;5.33;;;1.10;;
19739;SDS011;10027;51.066;13.768;2023-03-14T06:54:14;2.07;;;0.70;;
19739;SDS011;10027;51.066;13.768;2023-03-14T06:56:42;1.23;;;0.50;;
19739;SDS011;10027;51.066;13.768;2023-03-14T06:59:09;2.03;;;0.70;;
19739;SDS011;10027;51.066;13.768;2023-03-14T07:01:36;4.73;;;1.30;;
19739;SDS011;10027;51.066;13.768;2023-03-14T07:04:03;1.33;;;0.60;;
19739;SDS011;10027;51.066;13.768;2023-03-14T07:06:30;2.47;;;0.83;;
19739;SDS011;10027;51.066;13.768;2023-03-14T07:08:57;1.20;;;0.40;;
19739;SDS011;10027;51.066;13.768;2023-03-14T07:11:25;2.23;;;0.77;;
19739;SDS011;10027;51.066;13.768;2023-03-14T07:13:52;1.30;;;0.50;;
19739;SDS011;10027;51.066;13.768;2023-03-14T07:16:20;3.20;;;0.90;;
19739;SDS011;10027;51.066;13.768;2023-03-14T07:18:47;1.27;;;0.60;;
19739;SDS011;10027;51.066;13.768;2023-03-14T07:21:15;1.77;;;0.70;;
19739;SDS011;10027;51.066;13.768;2023-03-14T07:23:42;3.27;;;0.70;;
19739;SDS011;10027;51.066;13.768;2023-03-14T07:26:09;1.70;;;0.73;;
19739;SDS011;10027;51.066;13.768;2023-03-14T07:28:36;0.80;;;0.50;;
19739;SDS011;10027;51.066;13.768;2023-03-14T07:31:03;1.70;;;0.67;;
19739;SDS011;10027;51.066;13.768;2023-03-14T07:33:31;1.53;;;0.70;;
19739;SDS011;10027;51.066;13.768;2023-03-14T07:35:58;2.23;;;0.60;;
19739;SDS011;10027;51.066;13.768;2023-03-14T07:38:25;1.40;;;0.70;;
19739;SDS011;10027;51.066;13.768;2023-03-14T07:40:59;2.03;;;0.60;;
19739;SDS011;10027;51.066;13.768;2023-03-14T07:43:26;0.93;;;0.50;;
19739;SDS011;10027;51.066;13.768;2023-03-14T07:45:53;1.73;;;0.87;;
19739;SDS011;10027;51.066;13.768;2023-03-14T07:48:24;2.83;;;0.90;;
19739;SDS011;10027;51.066;13.768;2023-03-14T07:50:53;1.07;;;0.70;;
19739;SDS011;10027;51.066;13.768;2023-03-14T07:53:20;3.57;;;0.70;;
19739;SDS011;10027;51.066;13.768;2023-03-14T07:55:48;2.33;;;0.53;;
19739;SDS011;10027;51.066;13.768;2023-03-14T07:58:16;4.77;;;0.97;;
19739;SDS011;10027;51.066;13.768;2023-03-14T08:00:44;2.57;;;0.70;;
19739;SDS011;10027;51.066;13.768;2023-03-14T08:03:11;2.73;;;0.90;;
19739;SDS011;10027;51.066;13.768;2023-03-14T08:05:38;1.87;;;0.70;;
19739;SDS011;10027;51.066;13.768;2023-03-14T08:08:06;2.80;;;0.70;;
19739;SDS011;10027;51.066;13.768;2023-03-14T08:10:33;1.27;;;0.77;;
19739;SDS011;10027;51.066;13.768;2023-03-14T08:13:00;2.67;;;1.07;;
19739;SDS011;10027;51.066;13.768;2023-03-14T08:15:29;2.83;;;0.83;;
19739;SDS011;10027;51.066;13.768;2023-03-14T08:17:57;5.37;;;0.93;;
19739;SDS011;10027;51.066;13.768;2023-03-14T08:20:25;1.77;;;0.70;;
19739;SDS011;10027;51.066;13.768;2023-03-14T08:22:54;1.77;;;0.70;;
19739;SDS011;10027;51.066;13.768;2023-03-14T08:25:21;2.60;;;0.57;;
19739;SDS011;10027;51.066;13.768;2023-03-14T08:27:48;1.23;;;0.50;;
19739;SDS011;10027;51.066;13.768;2023-03-14T08:30:16;1.30;;;0.60;;
19739;SDS011;10027;51.066;13.768;2023-03-14T08:32:44;1.70;;;0.37;;
19739;SDS011;10027;51.066;13.768;2023-03-14T08:35:11;1.40;;;0.43;;
19739;SDS011;10027;51.066;13.768;2023-03-14T08:37:39;3.27;;;0.57;;
19739;SDS011;10027;51.066;13.768;2023-03-14T08:40:06;1.53;;;0.57;;
19739;SDS011;10027;51.066;13.768;2023-03-14T08:42:34;1.23;;;0.60;;
19739;SDS011;10027;51.066;13.768;2023-03-14T08:45:02;2.60;;;0.70;;
19739;SDS011;10027;51.066;13.768;2023-03-14T08:47:29;2.10;;;0.50;;
19739;SDS011;10027;51.066;13.768;2023-03-14T08:49:56;1.83;;;0.40;;
19739;SDS011;10027;51.066;13.768;2023-03-14T08:52:24;2.67;;;0.60;;
19739;SDS011;10027;51.066;13.768;2023-03-14T08:54:51;1.90;;;0.50;;
19739;SDS011;10027;51.066;13.768;2023-03-14T08:57:18;1.37;;;0.30;;
19739;SDS011;10027;51.066;13.768;2023-03-14T08:59:47;2.37;;;0.50;;
19739;SDS011;10027;51.066;13.768;2023-03-14T09:02:15;2.53;;;0.63;;
19739;SDS011;10027;51.066;13.768;2023-03-14T09:04:42;0.40;;;0.20;;
19739;SDS011;10027;51.066;13.768;2023-03-14T09:07:09;0.33;;;0.20;;
19739;SDS011;10027;51.066;13.768;2023-03-14T09:09:36;0.50;;;0.30;;
19739;SDS011;10027;51.066;13.768;2023-03-14T09:12:03;1.70;;;0.40;;
19739;SDS011;10027;51.066;13.768;2023-03-14T09:14:31;0.90;;;0.50;;
19739;SDS011;10027;51.066;13.768;2023-03-14T09:16:58;1.37;;;0.40;;
19739;SDS011;10027;51.066;13.768;2023-03-14T09:19:25;0.60;;;0.40;;
19739;SDS011;10027;51.066;13.768;2023-03-14T09:21:52;1.97;;;0.57;;
19739;SDS011;10027;51.066;13.768;2023-03-14T09:24:19;1.00;;;0.30;;
19739;SDS011;10027;51.066;13.768;2023-03-14T09:26:46;0.73;;;0.40;;
19739;SDS011;10027;51.066;13.768;2023-03-14T09:29:14;1.63;;;0.40;;
19739;SDS011;10027;51.066;13.768;2023-03-14T09:31:41;1.40;;;0.63;;
19739;SDS011;10027;51.066;13.768;2023-03-14T09:34:08;1.40;;;0.60;;
19739;SDS011;10027;51.066;13.768;2023-03-14T09:36:35;1.20;;;0.50;;
19739;SDS011;10027;51.066;13.768;2023-03-14T09:39:04;1.57;;;0.70;;
19739;SDS011;10027;51.066;13.768;2023-03-14T09:41:32;1.87;;;0.70;;
19739;SDS011;10027;51.066;13.768;2023-03-14T09:46:30;1.07;;;0.30;;
19739;SDS011;10027;51.066;13.768;2023-03-14T09:48:58;0.93;;;0.40;;
19739;SDS011;10027;51.066;13.768;2023-03-14T09:51:25;1.40;;;0.57;;
19739;SDS011;10027;51.066;13.768;2023-03-14T09:53:53;0.53;;;0.30;;
19739;SDS011;10027;51.066;13.768;2023-03-14T09:56:21;2.77;;;0.60;;
19739;SDS011;10027;51.066;13.768;2023-03-14T09:58:58;0.67;;;0.40;;
19739;SDS011;10027;51.066;13.768;2023-03-14T10:01:27;1.10;;;0.30;;
19739;SDS011;10027;51.066;13.768;2023-03-14T10:03:58;1.20;;;0.30;;
19739;SDS011;10027;51.066;13.768;2023-03-14T10:06:28;0.60;;;0.23;;
19739;SDS011;10027;51.066;13.768;2023-03-14T10:08:56;0.97;;;0.40;;
19739;SDS011;10027;51.066;13.768;2023-03-14T10:11:23;1.83;;;0.40;;
19739;SDS011;10027;51.066;13.768;2023-03-14T10:16:34;3.70;;;0.67;;
19739;SDS011;10027;51.066;13.768;2023-03-14T10:19:02;0.87;;;0.20;;
19739;SDS011;10027;51.066;13.768;2023-03-14T10:21:30;0.67;;;0.47;;
19739;SDS011;10027;51.066;13.768;2023-03-14T10:24:09;2.00;;;0.40;;
19739;SDS011;10027;51.066;13.768;2023-03-14T10:26:36;0.70;;;0.60;;
19739;SDS011;10027;51.066;13.768;2023-03-14T10:29:08;1.57;;;0.30;;
19739;SDS011;10027;51.066;13.768;2023-03-14T10:31:46;1.57;;;0.30;;
19739;SDS011;10027;51.066;13.768;2023-03-14T10:34:21;1.70;;;0.40;;
19739;SDS011;10027;51.066;13.768;2023-03-14T10:36:52;1.23;;;0.40;;
19739;SDS011;10027;51.066;13.768;2023-03-14T10:42:16;1.70;;;0.50;;
19739;SDS011;10027;51.066;13.768;2023-03-14T10:44:40;1.87;;;0.53;;
19739;SDS011;10027;51.066;13.768;2023-03-14T10:47:12;0.30;;;0.10;;
19739;SDS011;10027;51.066;13.768;2023-03-14T10:49:42;0.43;;;0.20;;
19739;SDS011;10027;51.066;13.768;2023-03-14T10:54:39;4.60;;;1.00;;
19739;SDS011;10027;51.066;13.768;2023-03-14T10:57:06;0.87;;;0.50;;
19739;SDS011;10027;51.066;13.768;2023-03-14T10:59:38;1.10;;;0.50;;
19739;SDS011;10027;51.066;13.768;2023-03-14T11:02:10;0.90;;;0.40;;
19739;SDS011;10027;51.066;13.768;2023-03-14T11:07:33;1.50;;;0.23;;
19739;SDS011;10027;51.066;13.768;2023-03-14T11:15:36;2.20;;;0.53;;
19739;SDS011;10027;51.066;13.768;2023-03-14T11:23:21;0.80;;;0.40;;
19739;SDS011;10027;51.066;13.768;2023-03-14T11:28:35;0.70;;;0.30;;
19739;SDS011;10027;51.066;13.768;2023-03-14T11:31:25;1.37;;;0.40;;
19739;SDS011;10027;51.066;13.768;2023-03-14T11:34:15;0.43;;;0.10;;
19739;SDS011;10027;51.066;13.768;2023-03-14T11:36:39;0.97;;;0.30;;
19739;SDS011;10027;51.066;13.768;2023-03-14T11:39:17;0.57;;;0.20;;
19739;SDS011;10027;51.066;13.768;2023-03-14T11:41:52;1.03;;;0.30;;
19739;SDS011;10027;51.066;13.768;2023-03-14T11:44:20;0.80;;;0.40;;
19739;SDS011;10027;51.066;13.768;2023-03-14T11:52:05;2.13;;;0.40;;
19739;SDS011;10027;51.066;13.768;2023-03-14T11:57:09;0.27;;;0.23;;
19739;SDS011;10027;51.066;13.768;2023-03-14T12:07:33;1.33;;;0.40;;
19739;SDS011;10027;51.066;13.768;2023-03-14T12:10:02;1.00;;;0.23;;
19739;SDS011;10027;51.066;13.768;2023-03-14T12:12:29;1.27;;;0.27;;
19739;SDS011;10027;51.066;13.768;2023-03-14T12:15:00;1.60;;;0.30;;
19739;SDS011;10027;51.066;13.768;2023-03-14T12:17:35;1.77;;;0.30;;
19739;SDS011;10027;51.066;13.768;2023-03-14T12:20:15;0.97;;;0.47;;
19739;SDS011;10027;51.066;13.768;2023-03-14T12:22:53;0.40;;;0.20;;
19739;SDS011;10027;51.066;13.768;2023-03-14T12:25:21;0.20;;;0.20;;
19739;SDS011;10027;51.066;13.768;2023-03-14T12:28:03;0.73;;;0.20;;
19739;SDS011;10027;51.066;13.768;2023-03-14T12:38:26;1.33;;;0.40;;
19739;SDS011;10027;51.066;13.768;2023-03-14T12:43:31;1.83;;;0.33;;
19739;SDS011;10027;51.066;13.768;2023-03-14T12:48:37;1.90;;;0.30;;
19739;SDS011;10027;51.066;13.768;2023-03-14T12:51:05;0.50;;;0.20;;
19739;SDS011;10027;51.066;13.768;2023-03-14T12:59:01;0.67;;;0.20;;
19739;SDS011;10027;51.066;13.768;2023-03-14T13:01:33;0.20;;;0.17;;
19739;SDS011;10027;51.066;13.768;2023-03-14T13:04:07;0.53;;;0.10;;
19739;SDS011;10027;51.066;13.768;2023-03-14T13:06:52;0.77;;;0.10;;
19739;SDS011;10027;51.066;13.768;2023-03-14T13:12:03;0.57;;;0.10;;
19739;SDS011;10027;51.066;13.768;2023-03-14T13:14:30;2.13;;;0.20;;
19739;SDS011;10027;51.066;13.768;2023-03-14T13:17:01;0.87;;;0.20;;
19739;SDS011;10027;51.066;13.768;2023-03-14T13:19:52;0.73;;;0.20;;
19739;SDS011;10027;51.066;13.768;2023-03-14T13:22:22;0.67;;;0.20;;
19739;SDS011;10027;51.066;13.768;2023-03-14T13:24:58;0.43;;;0.10;;
19739;SDS011;10027;51.066;13.768;2023-03-14T13:27:25;0.67;;;0.20;;
19739;SDS011;10027;51.066;13.768;2023-03-14T13:29:53;0.40;;;0.20;;
19739;SDS011;10027;51.066;13.768;2023-03-14T13:32:21;1.00;;;0.20;;
19739;SDS011;10027;51.066;13.768;2023-03-14T13:34:48;0.50;;;0.20;;
19739;SDS011;10027;51.066;13.768;2023-03-14T13:37:23;0.30;;;0.10;;
19739;SDS011;10027;51.066;13.768;2023-03-14T13:39:51;0.27;;;0.20;;
19739;SDS011;10027;51.066;13.768;2023-03-14T13:42:19;0.23;;;0.03;;
19739;SDS011;10027;51.066;13.768;2023-03-14T13:44:46;0.10;;;0.10;;
19739;SDS011;10027;51.066;13.768;2023-03-14T13:47:18;0.30;;;0.20;;
19739;SDS011;10027;51.066;13.768;2023-03-14T13:49:46;1.03;;;0.17;;
19739;SDS011;10027;51.066;13.768;2023-03-14T13:54:52;0.30;;;0.20;;
19739;SDS011;10027;51.066;13.768;2023-03-14T13:57:20;1.07;;;0.30;;
19739;SDS011;10027;51.066;13.768;2023-03-14T14:00:03;1.43;;;0.20;;
19739;SDS011;10027;51.066;13.768;2023-03-14T14:02:36;0.30;;;0.10;;
19739;SDS011;10027;51.066;13.768;2023-03-14T14:05:04;0.97;;;0.30;;
19739;SDS011;10027;51.066;13.768;2023-03-14T14:07:31;0.17;;;0.10;;
19739;SDS011;10027;51.066;13.768;2023-03-14T14:09:58;1.27;;;0.40;;
19739;SDS011;10027;51.066;13.768;2023-03-14T14:12:34;0.43;;;0.20;;
19739;SDS011;10027;51.066;13.768;2023-03-14T14:15:04;0.83;;;0.20;;
19739;SDS011;10027;51.066;13.768;2023-03-14T14:20:00;0.20;;;0.20;;
19739;SDS011;10027;51.066;13.768;2023-03-14T14:22:29;0.57;;;0.17;;
19739;SDS011;10027;51.066;13.768;2023-03-14T14:24:56;0.33;;;0.20;;
19739;SDS011;10027;51.066;13.768;2023-03-14T14:27:35;0.40;;;0.20;;
19739;SDS011;10027;51.066;13.768;2023-03-14T14:32:46;0.10;;;0.10;;
19739;SDS011;10027;51.066;13.768;2023-03-14T14:35:23;0.67;;;0.10;;
19739;SDS011;10027;51.066;13.768;2023-03-14T14:37:51;0.40;;;0.20;;
19739;SDS011;10027;51.066;13.768;2023-03-14T14:40:22;0.53;;;0.20;;
19739;SDS011;10027;51.066;13.768;2023-03-14T14:42:50;0.90;;;0.10;;
19739;SDS011;10027;51.066;13.768;2023-03-14T14:45:19;1.33;;;0.20;;
19739;SDS011;10027;51.066;13.768;2023-03-14T14:47:57;0.60;;;0.20;;
19739;SDS011;10027;51.066;13.768;2023-03-14T14:52:56;0.23;;;0.13;;
19739;SDS011;10027;51.066;13.768;2023-03-14T14:55:28;0.53;;;0.30;;
19739;SDS011;10027;51.066;13.768;2023-03-14T14:57:56;0.20;;;0.20;;
19739;SDS011;10027;51.066;13.768;2023-03-14T15:00:24;0.10;;;0.10;;
19739;SDS011;10027;51.066;13.768;2023-03-14T15:02:52;0.13;;;0.13;;
19739;SDS011;10027;51.066;13.768;2023-03-14T15:05:25;0.47;;;0.20;;
19739;SDS011;10027;51.066;13.768;2023-03-14T15:07:52;0.40;;;0.17;;
19739;SDS011;10027;51.066;13.768;2023-03-14T15:10:20;0.63;;;0.13;;
19739;SDS011;10027;51.066;13.768;2023-03-14T15:12:48;0.10;;;0.10;;
19739;SDS011;10027;51.066;13.768;2023-03-14T15:15:16;0.17;;;0.10;;
19739;SDS011;10027;51.066;13.768;2023-03-14T15:17:43;0.10;;;0.10;;
19739;SDS011;10027;51.066;13.768;2023-03-14T15:20:11;0.20;;;0.10;;
19739;SDS011;10027;51.066;13.768;2023-03-14T15:22:39;0.40;;;0.20;;
19739;SDS011;10027;51.066;13.768;2023-03-14T15:25:06;0.23;;;0.20;;
19739;SDS011;10027;51.066;13.768;2023-03-14T15:27:43;0.80;;;0.17;;
19739;SDS011;10027;51.066;13.768;2023-03-14T15:30:14;0.10;;;0.10;;
19739;SDS011;10027;51.066;13.768;2023-03-14T15:32:41;0.57;;;0.30;;
19739;SDS011;10027;51.066;13.768;2023-03-14T15:35:08;1.33;;;0.80;;
19739;SDS011;10027;51.066;13.768;2023-03-14T15:37:36;0.20;;;0.20;;
19739;SDS011;10027;51.066;13.768;2023-03-14T15:40:03;0.20;;;0.20;;
19739;SDS011;10027;51.066;13.768;2023-03-14T15:42:37;0.37;;;0.20;;
19739;SDS011;10027;51.066;13.768;2023-03-14T15:45:05;0.77;;;0.20;;
19739;SDS011;10027;51.066;13.768;2023-03-14T15:47:32;0.20;;;0.13;;
19739;SDS011;10027;51.066;13.768;2023-03-14T15:49:59;0.60;;;0.30;;
19739;SDS011;10027;51.066;13.768;2023-03-14T15:52:26;0.40;;;0.30;;
19739;SDS011;10027;51.066;13.768;2023-03-14T15:54:53;0.60;;;0.43;;
19739;SDS011;10027;51.066;13.768;2023-03-14T15:57:20;0.73;;;0.37;;
19739;SDS011;10027;51.066;13.768;2023-03-14T15:59:48;0.50;;;0.40;;
19739;SDS011;10027;51.066;13.768;2023-03-14T16:02:15;0.60;;;0.30;;
19739;SDS011;10027;51.066;13.768;2023-03-14T16:04:42;0.40;;;0.30;;